Saga Pearl II — 9HA2950 — position and weather

sailwx.info

Track history (hours):
 
Tides and Currents Weather Stations Pressure Air Temp Water Temp Dewpoint Dewpoint Depression Visibility Wind Speed Wind Dir Waves Ship Positions

Saga Pearl II

Last reported at 2018-Apr-24 21:00 UTC. Time now 2018-Apr-25 02:47 UTC.
Position N 40°00' W 009°36'.

Length 165 m; draft 6.3 m.

Type: Ship. MMSI: 256878000.

Wind from 360 at 31 knots

Barometer 1017.9 mb
Air temperature 14.5 ° C
Visibility: greater than 5.4 NM
Dewpoint 10.7 ° C
Water temperature 16.4 ° C

Date/timePositionNaut miles runAvg speedWind from/ knotsBaromVisibWave heightAir tempDewpointWater temp
2018-Apr-24 21:00N 40°00' W 009°36'2515.7 360 / 311017.9 5.4 14.510.716.4
2018-Apr-24 19:25N 39°36' W 009°45'917.1
2018-Apr-24 18:55N 39°28' W 009°46'716.8
2018-Apr-24 18:30N 39°21' W 009°47'816.9
2018-Apr-24 18:00N 39°12' W 009°48'917.1
2018-Apr-24 17:30N 39°04' W 009°50'817.0
2018-Apr-24 17:00N 38°55' W 009°51'916.9
2018-Apr-24 16:30N 38°47' W 009°51'916.8
2018-Apr-24 16:00N 38°38' W 009°51'816.6
2018-Apr-24 15:29N 38°30' W 009°48'816.7
2018-Apr-24 15:00N 38°22' W 009°46'916.5
2018-Apr-24 14:28N 38°14' W 009°43'816.7
2018-Apr-24 13:59N 38°06' W 009°41'816.5
2018-Apr-24 13:31N 37°58' W 009°39'816.7
2018-Apr-24 13:00N 37°50' W 009°37'1016.5
2018-Apr-24 12:26N 37°41' W 009°35'716.8
2018-Apr-24 11:59N 37°33' W 009°32'5216.2
2018-Apr-24 08:44N 36°45' W 009°08'415.5
2018-Apr-24 08:29N 36°44' W 009°03'714.5
2018-Apr-24 08:00N 36°47' W 008°55'1016.2
2018-Apr-24 07:23N 36°54' W 008°47'616.5
2018-Apr-24 07:00N 36°58' W 008°41'916.5
2018-Apr-24 06:29N 37°05' W 008°34'3 6.9
2018-Apr-24 05:59N 37°08' W 008°32'0 0.0
2018-Apr-24 05:28N 37°08' W 008°32'0 0.0
2018-Apr-24 04:58N 37°08' W 008°32'0 0.0
2018-Apr-24 04:28N 37°08' W 008°32'0 0.0
2018-Apr-24 03:49N 37°08' W 008°32'0 0.0
2018-Apr-24 01:51N 37°08' W 008°32'0 0.0
2018-Apr-24 01:02N 37°08' W 008°32'0 0.0
2018-Apr-24 00:56N 37°08' W 008°32'0 0.0
2018-Apr-24 00:20N 37°08' W 008°32'0 0.0
2018-Apr-23 23:56N 37°08' W 008°32'0 0.0
2018-Apr-23 23:26N 37°08' W 008°32'0 0.0
2018-Apr-23 22:56N 37°08' W 008°32'0 0.0
2018-Apr-23 22:25N 37°08' W 008°32'0 0.0
2018-Apr-23 21:49N 37°08' W 008°32'0 0.0
2018-Apr-23 21:13N 37°08' W 008°32'0 0.0
2018-Apr-23 20:49N 37°08' W 008°32'0 0.0
2018-Apr-23 20:30N 37°08' W 008°32'0 0.0
2018-Apr-23 19:54N 37°08' W 008°32'0 0.0
2018-Apr-23 18:48N 37°08' W 008°32'0 0.0
2018-Apr-23 18:05N 37°08' W 008°32'0 0.0
2018-Apr-23 17:11N 37°08' W 008°32'0 0.0
2018-Apr-23 16:53N 37°08' W 008°32'0 0.0
2018-Apr-23 16:11N 37°08' W 008°32'0 0.0
2018-Apr-23 15:46N 37°08' W 008°32'0 0.0
2018-Apr-23 13:34N 37°08' W 008°32'0 0.0
2018-Apr-23 13:03N 37°08' W 008°32'0 0.0
2018-Apr-23 12:45N 37°08' W 008°32'0 0.0
2018-Apr-23 06:55N 37°08' W 008°32'0 0.1
2018-Apr-23 06:30N 37°08' W 008°32'2 4.0
2018-Apr-23 06:00N 37°06' W 008°32'610.2
2018-Apr-23 05:27N 36°60' W 008°31'410.1
2018-Apr-23 05:00N 36°56' W 008°31'  
2018-Apr-20 09:36N 38°09' W 009°56'214.7
2018-Apr-20 09:29N 38°11' W 009°57'714.7
2018-Apr-20 09:00N 38°18' W 009°59'612.5
2018-Apr-20 08:30N 38°24' W 009°60'713.4
2018-Apr-20 08:00N 38°31' W 010°01'713.5
2018-Apr-20 07:30N 38°37' W 010°04'713.5
2018-Apr-20 07:00N 38°44' W 010°05'713.3
2018-Apr-20 06:30N 38°51' W 010°05'713.2
2018-Apr-20 06:00N 38°57' W 010°04'713.2
2018-Apr-20 05:30N 39°04' W 010°05'713.0
2018-Apr-20 05:00N 39°10' W 010°05'713.3
2018-Apr-20 04:30N 39°17' W 010°05'713.6
2018-Apr-20 04:00N 39°24' W 010°05'713.6
2018-Apr-20 03:30N 39°31' W 010°05'1013.6
2018-Apr-20 02:45N 39°41' W 010°05'313.6
2018-Apr-20 02:30N 39°44' W 010°05'713.4
2018-Apr-20 02:00N 39°51' W 010°05'20115.4
2018-Apr-19 13:00N 43°12' W 010°06'46413.9 020 / 101023.110.8 15.411.914.9
2018-Apr-18 03:42N 49°38' W 003°52'1913.7
2018-Apr-18 02:18N 49°47' W 003°26'414.5
2018-Apr-18 02:01N 49°49' W 003°21'715.0
2018-Apr-18 01:30N 49°53' W 003°11'11 7.2
2018-Apr-18 00:00N 49°54' W 002°54'2718.8 180 / 281023.810.8 11.7 9.511.8
2018-Apr-17 22:34N 49°58' W 002°13'211.9
2018-Apr-17 22:25N 49°57' W 002°10'511.4
2018-Apr-17 21:59N 49°54' W 002°04'510.8
2018-Apr-17 21:30N 49°52' W 001°57'5 9.9
2018-Apr-17 21:00N 49°48' W 001°51'5 9.8
2018-Apr-17 20:30N 49°45' W 001°46'510.5
2018-Apr-17 20:00N 49°41' W 001°40'3 6.7
2018-Apr-17 19:30N 49°39' W 001°37'0 0.0
2018-Apr-17 18:59N 49°39' W 001°37'0 0.0
2018-Apr-17 18:29N 49°39' W 001°37'0 0.0
2018-Apr-17 17:59N 49°39' W 001°37'0 0.0
2018-Apr-17 17:29N 49°39' W 001°37'0 0.0
2018-Apr-17 16:58N 49°39' W 001°37'0 0.0
2018-Apr-17 16:28N 49°39' W 001°37'0 0.0
2018-Apr-17 15:58N 49°39' W 001°37'0 0.0
2018-Apr-17 15:28N 49°39' W 001°37'0 0.0
2018-Apr-17 15:01N 49°39' W 001°37'0 0.0
2018-Apr-17 14:30N 49°39' W 001°37'0 0.0
2018-Apr-17 14:00N 49°39' W 001°37'0 0.0
2018-Apr-17 13:27N 49°39' W 001°37'0 0.0
2018-Apr-17 13:00N 49°39' W 001°37'0 0.0
2018-Apr-17 12:29N 49°39' W 001°37'0 0.0
2018-Apr-17 11:59N 49°39' W 001°37'0 0.0
2018-Apr-17 11:29N 49°39' W 001°37'0 0.0
2018-Apr-17 10:58N 49°39' W 001°37'0 0.0
2018-Apr-17 10:28N 49°39' W 001°37'0 0.0
2018-Apr-17 09:58N 49°39' W 001°37'0 0.0
2018-Apr-17 09:28N 49°39' W 001°37'0 0.0
2018-Apr-17 09:00N 49°39' W 001°37'0 0.0
2018-Apr-17 08:30N 49°39' W 001°37'0 0.0
2018-Apr-17 08:00N 49°39' W 001°37'0 0.0
2018-Apr-17 07:30N 49°39' W 001°37'0 0.0
2018-Apr-17 07:00N 49°39' W 001°37'0 0.0
2018-Apr-17 06:29N 49°39' W 001°37'0 0.0
2018-Apr-17 05:59N 49°39' W 001°37'1 1.1
2018-Apr-17 05:30N 49°39' W 001°37'5 9.7
2018-Apr-17 05:00N 49°43' W 001°42'4 8.6
2018-Apr-17 04:31N 49°47' W 001°40'713.1
2018-Apr-17 04:00N 49°49' W 001°31'612.5
2018-Apr-17 03:30N 49°51' W 001°22'612.5
2018-Apr-17 03:00N 49°53' W 001°13'612.6
2018-Apr-17 02:30N 49°54' W 001°03'612.5
2018-Apr-17 02:00N 49°54' W 000°53'612.2
2018-Apr-17 01:30N 49°54' W 000°44'5 9.8
2018-Apr-17 00:59N 49°55' W 000°36'4 8.3
2018-Apr-17 00:29N 49°59' W 000°39'4 8.8
2018-Apr-17 00:00N 50°03' W 000°43'16 8.0
2018-Apr-16 21:59N 50°18' W 000°48'4 7.9
2018-Apr-16 21:30N 50°22' W 000°49'4 8.1
2018-Apr-16 20:58N 50°26' W 000°52'4 8.7
2018-Apr-16 20:31N 50°30' W 000°54'4 8.7
2018-Apr-16 20:00N 50°34' W 000°56'4 8.6
2018-Apr-16 19:30N 50°37' W 000°60'4 8.1
2018-Apr-16 19:00N 50°41' W 000°58'611.6
2018-Apr-16 18:30N 50°45' W 001°05'4 6.9
2018-Apr-16 17:59N 50°49' W 001°06'0 0.0
2018-Apr-16 17:28N 50°49' W 001°06'0 0.0
2018-Apr-16 16:58N 50°49' W 001°06'0 0.0
2018-Apr-16 16:28N 50°49' W 001°06'0 0.0
2018-Apr-16 15:58N 50°49' W 001°06'0 0.0
2018-Apr-16 15:28N 50°49' W 001°06'0 0.0
2018-Apr-16 15:00N 50°49' W 001°06'0 0.0
2018-Apr-16 14:30N 50°49' W 001°06'0 0.0
2018-Apr-16 14:00N 50°49' W 001°06'0 0.0
2018-Apr-16 13:30N 50°49' W 001°06'0 0.0
2018-Apr-16 13:00N 50°49' W 001°06'0 0.0
2018-Apr-16 12:29N 50°49' W 001°06'0 0.0
2018-Apr-16 11:59N 50°49' W 001°06'0 0.0
2018-Apr-16 11:29N 50°49' W 001°06'0 0.0
2018-Apr-16 10:56N 50°49' W 001°06'0 0.0
2018-Apr-16 10:28N 50°49' W 001°06'0 0.0
2018-Apr-16 09:58N 50°49' W 001°06'0 0.0
2018-Apr-16 09:28N 50°49' W 001°06'0 0.0
2018-Apr-16 08:58N 50°49' W 001°06'0 0.0
2018-Apr-16 08:28N 50°49' W 001°06'0 0.0
2018-Apr-16 08:00N 50°49' W 001°06'0 0.0
2018-Apr-16 07:30N 50°49' W 001°06'0 0.0
2018-Apr-16 07:00N 50°49' W 001°06'0 0.0
2018-Apr-16 06:30N 50°49' W 001°06'0 0.0
2018-Apr-16 06:00N 50°49' W 001°06'0 0.0
2018-Apr-16 05:29N 50°49' W 001°06'0 0.0
2018-Apr-16 05:00N 50°49' W 001°06'1 1.7
2018-Apr-16 04:30N 50°48' W 001°07'5 9.4
2018-Apr-16 04:00N 50°44' W 001°04'611.8
2018-Apr-16 03:30N 50°39' W 000°59'612.6
2018-Apr-16 03:00N 50°33' W 000°59'815.3
2018-Apr-16 02:30N 50°25' W 001°00'1114.0
2018-Apr-16 01:42N 50°14' W 000°59'3 9.9
2018-Apr-16 01:25N 50°11' W 001°01'511.8
2018-Apr-16 01:00N 50°06' W 000°60'612.5
2018-Apr-16 00:30N 50°00' W 000°56'510.7
2018-Apr-16 00:00N 49°55' W 000°59'510.7
2018-Apr-15 23:30N 49°50' W 001°02'611.7
2018-Apr-15 23:01N 49°48' W 000°53'610.5
2018-Apr-15 22:29N 49°43' W 000°49'510.4
2018-Apr-15 22:00N 49°39' W 000°45'610.1
2018-Apr-15 21:24N 49°36' W 000°37'410.1
2018-Apr-15 21:00N 49°35' W 000°31'5 9.6
2018-Apr-15 20:27N 49°34' W 000°23'4 9.6
2018-Apr-15 20:00N 49°32' W 000°17'510.2
2018-Apr-15 19:30N 49°30' W 000°10'510.8
2018-Apr-15 19:00N 49°28' W 000°02'612.1
2018-Apr-15 18:30N 49°26' E 000°07'5 9.5
2018-Apr-15 17:59N 49°26' E 000°14'0 0.0
2018-Apr-15 17:29N 49°26' E 000°14'0 0.0
2018-Apr-15 16:59N 49°26' E 000°14'0 0.0
2018-Apr-15 16:29N 49°26' E 000°14'0 0.0
2018-Apr-15 15:55N 49°26' E 000°14'0 0.0
2018-Apr-15 15:28N 49°26' E 000°14'0 0.0
2018-Apr-15 14:58N 49°26' E 000°14'0 0.0
2018-Apr-15 14:28N 49°26' E 000°14'0 0.0
2018-Apr-15 13:58N 49°26' E 000°14'0 0.0
2018-Apr-15 13:30N 49°26' E 000°14'0 0.0
2018-Apr-15 13:00N 49°26' E 000°14'0 0.0
2018-Apr-15 12:27N 49°26' E 000°14'0 0.0
2018-Apr-15 12:00N 49°26' E 000°14'0 0.0
2018-Apr-15 11:30N 49°26' E 000°14'0 0.0
2018-Apr-15 10:59N 49°26' E 000°14'0 0.0
2018-Apr-15 10:29N 49°26' E 000°14'0 0.0
2018-Apr-15 09:59N 49°26' E 000°14'0 0.0
2018-Apr-15 09:29N 49°26' E 000°14'0 0.0
2018-Apr-15 08:58N 49°26' E 000°14'0 0.0
2018-Apr-15 08:28N 49°26' E 000°14'0 0.0
2018-Apr-15 07:58N 49°26' E 000°14'0 0.0
2018-Apr-15 07:25N 49°26' E 000°14'0 0.0
2018-Apr-15 06:55N 49°26' E 000°14'0 0.3
2018-Apr-15 06:30N 49°26' E 000°14'5 9.2
2018-Apr-15 06:00N 49°26' E 000°07'713.9
2018-Apr-15 05:30N 49°29' W 000°03'510.9
2018-Apr-15 05:01N 49°30' W 000°11'611.8
2018-Apr-15 04:30N 49°32' W 000°19'612.4
2018-Apr-15 04:00N 49°35' W 000°28'612.4
2018-Apr-15 03:30N 49°38' W 000°36'612.3
2018-Apr-15 03:01N 49°41' W 000°44'611.8
2018-Apr-15 02:30N 49°46' W 000°51'612.4
2018-Apr-15 02:00N 49°49' W 000°58'612.2
2018-Apr-15 01:30N 49°53' W 001°06'611.4
2018-Apr-15 01:00N 49°55' W 001°14'611.1
2018-Apr-15 00:30N 49°56' W 001°22'611.7
2018-Apr-15 00:00N 49°56' W 001°32'611.5
2018-Apr-14 23:30N 49°57' W 001°41'611.5
2018-Apr-14 23:00N 49°57' W 001°49'  
Track history (hours):
 
Tides and Currents Weather Stations Pressure Air Temp Water Temp Dewpoint Dewpoint Depression Visibility Wind Speed Wind Dir Waves Ship Positions

Saga Pearl II

Last reported at 2018-Apr-24 21:00 UTC. Time now 2018-Apr-25 02:47 UTC.
Position N 40°00' W 009°36'.

Length 165 m; draft 6.3 m.

Type: Ship. MMSI: 256878000.

Wind from 360 at 31 knots

Barometer 1017.9 mb
Air temperature 14.5 ° C
Visibility: greater than 5.4 NM
Dewpoint 10.7 ° C
Water temperature 16.4 ° C

Date/timePositionNaut miles runAvg speedWind from/ knotsBaromVisibWave heightAir tempDewpointWater temp
2018-Apr-24 21:00N 40°00' W 009°36'2515.7 360 / 311017.9 5.4 14.510.716.4
2018-Apr-24 19:25N 39°36' W 009°45'917.1
2018-Apr-24 18:55N 39°28' W 009°46'716.8
2018-Apr-24 18:30N 39°21' W 009°47'816.9
2018-Apr-24 18:00N 39°12' W 009°48'917.1
2018-Apr-24 17:30N 39°04' W 009°50'817.0
2018-Apr-24 17:00N 38°55' W 009°51'916.9
2018-Apr-24 16:30N 38°47' W 009°51'916.8
2018-Apr-24 16:00N 38°38' W 009°51'816.6
2018-Apr-24 15:29N 38°30' W 009°48'816.7
2018-Apr-24 15:00N 38°22' W 009°46'916.5
2018-Apr-24 14:28N 38°14' W 009°43'816.7
2018-Apr-24 13:59N 38°06' W 009°41'816.5
2018-Apr-24 13:31N 37°58' W 009°39'816.7
2018-Apr-24 13:00N 37°50' W 009°37'1016.5
2018-Apr-24 12:26N 37°41' W 009°35'716.8
2018-Apr-24 11:59N 37°33' W 009°32'5216.2
2018-Apr-24 08:44N 36°45' W 009°08'415.5
2018-Apr-24 08:29N 36°44' W 009°03'714.5
2018-Apr-24 08:00N 36°47' W 008°55'1016.2
2018-Apr-24 07:23N 36°54' W 008°47'616.5
2018-Apr-24 07:00N 36°58' W 008°41'916.5
2018-Apr-24 06:29N 37°05' W 008°34'3 6.9
2018-Apr-24 05:59N 37°08' W 008°32'0 0.0
2018-Apr-24 05:28N 37°08' W 008°32'0 0.0
2018-Apr-24 04:58N 37°08' W 008°32'0 0.0
2018-Apr-24 04:28N 37°08' W 008°32'0 0.0
2018-Apr-24 03:49N 37°08' W 008°32'0 0.0
2018-Apr-24 01:51N 37°08' W 008°32'0 0.0
2018-Apr-24 01:02N 37°08' W 008°32'0 0.0
2018-Apr-24 00:56N 37°08' W 008°32'0 0.0
2018-Apr-24 00:20N 37°08' W 008°32'0 0.0
2018-Apr-23 23:56N 37°08' W 008°32'0 0.0
2018-Apr-23 23:26N 37°08' W 008°32'0 0.0
2018-Apr-23 22:56N 37°08' W 008°32'0 0.0
2018-Apr-23 22:25N 37°08' W 008°32'0 0.0
2018-Apr-23 21:49N 37°08' W 008°32'0 0.0
2018-Apr-23 21:13N 37°08' W 008°32'0 0.0
2018-Apr-23 20:49N 37°08' W 008°32'0 0.0
2018-Apr-23 20:30N 37°08' W 008°32'0 0.0
2018-Apr-23 19:54N 37°08' W 008°32'0 0.0
2018-Apr-23 18:48N 37°08' W 008°32'0 0.0
2018-Apr-23 18:05N 37°08' W 008°32'0 0.0
2018-Apr-23 17:11N 37°08' W 008°32'0 0.0
2018-Apr-23 16:53N 37°08' W 008°32'0 0.0
2018-Apr-23 16:11N 37°08' W 008°32'0 0.0
2018-Apr-23 15:46N 37°08' W 008°32'0 0.0
2018-Apr-23 13:34N 37°08' W 008°32'0 0.0
2018-Apr-23 13:03N 37°08' W 008°32'0 0.0
2018-Apr-23 12:45N 37°08' W 008°32'0 0.0
2018-Apr-23 06:55N 37°08' W 008°32'0 0.1
2018-Apr-23 06:30N 37°08' W 008°32'2 4.0
2018-Apr-23 06:00N 37°06' W 008°32'610.2
2018-Apr-23 05:27N 36°60' W 008°31'410.1
2018-Apr-23 05:00N 36°56' W 008°31'  
2018-Apr-20 09:36N 38°09' W 009°56'214.7
2018-Apr-20 09:29N 38°11' W 009°57'714.7
2018-Apr-20 09:00N 38°18' W 009°59'612.5
2018-Apr-20 08:30N 38°24' W 009°60'713.4
2018-Apr-20 08:00N 38°31' W 010°01'713.5
2018-Apr-20 07:30N 38°37' W 010°04'713.5
2018-Apr-20 07:00N 38°44' W 010°05'713.3
2018-Apr-20 06:30N 38°51' W 010°05'713.2
2018-Apr-20 06:00N 38°57' W 010°04'713.2
2018-Apr-20 05:30N 39°04' W 010°05'713.0
2018-Apr-20 05:00N 39°10' W 010°05'713.3
2018-Apr-20 04:30N 39°17' W 010°05'713.6
2018-Apr-20 04:00N 39°24' W 010°05'713.6
2018-Apr-20 03:30N 39°31' W 010°05'1013.6
2018-Apr-20 02:45N 39°41' W 010°05'313.6
2018-Apr-20 02:30N 39°44' W 010°05'713.4
2018-Apr-20 02:00N 39°51' W 010°05'20115.4
2018-Apr-19 13:00N 43°12' W 010°06'46413.9 020 / 101023.110.8 15.411.914.9
2018-Apr-18 03:42N 49°38' W 003°52'1913.7
2018-Apr-18 02:18N 49°47' W 003°26'414.5
2018-Apr-18 02:01N 49°49' W 003°21'715.0
2018-Apr-18 01:30N 49°53' W 003°11'11 7.2
2018-Apr-18 00:00N 49°54' W 002°54'2718.8 180 / 281023.810.8 11.7 9.511.8
2018-Apr-17 22:34N 49°58' W 002°13'211.9
2018-Apr-17 22:25N 49°57' W 002°10'511.4
2018-Apr-17 21:59N 49°54' W 002°04'510.8
2018-Apr-17 21:30N 49°52' W 001°57'5 9.9
2018-Apr-17 21:00N 49°48' W 001°51'5 9.8
2018-Apr-17 20:30N 49°45' W 001°46'510.5
2018-Apr-17 20:00N 49°41' W 001°40'3 6.7
2018-Apr-17 19:30N 49°39' W 001°37'0 0.0
2018-Apr-17 18:59N 49°39' W 001°37'0 0.0
2018-Apr-17 18:29N 49°39' W 001°37'0 0.0
2018-Apr-17 17:59N 49°39' W 001°37'0 0.0
2018-Apr-17 17:29N 49°39' W 001°37'0 0.0
2018-Apr-17 16:58N 49°39' W 001°37'0 0.0
2018-Apr-17 16:28N 49°39' W 001°37'0 0.0
2018-Apr-17 15:58N 49°39' W 001°37'0 0.0
2018-Apr-17 15:28N 49°39' W 001°37'0 0.0
2018-Apr-17 15:01N 49°39' W 001°37'0 0.0
2018-Apr-17 14:30N 49°39' W 001°37'0 0.0
2018-Apr-17 14:00N 49°39' W 001°37'0 0.0
2018-Apr-17 13:27N 49°39' W 001°37'0 0.0
2018-Apr-17 13:00N 49°39' W 001°37'0 0.0
2018-Apr-17 12:29N 49°39' W 001°37'0 0.0
2018-Apr-17 11:59N 49°39' W 001°37'0 0.0
2018-Apr-17 11:29N 49°39' W 001°37'0 0.0
2018-Apr-17 10:58N 49°39' W 001°37'0 0.0
2018-Apr-17 10:28N 49°39' W 001°37'0 0.0
2018-Apr-17 09:58N 49°39' W 001°37'0 0.0
2018-Apr-17 09:28N 49°39' W 001°37'0 0.0
2018-Apr-17 09:00N 49°39' W 001°37'0 0.0
2018-Apr-17 08:30N 49°39' W 001°37'0 0.0
2018-Apr-17 08:00N 49°39' W 001°37'0 0.0
2018-Apr-17 07:30N 49°39' W 001°37'0 0.0
2018-Apr-17 07:00N 49°39' W 001°37'0 0.0
2018-Apr-17 06:29N 49°39' W 001°37'0 0.0
2018-Apr-17 05:59N 49°39' W 001°37'1 1.1
2018-Apr-17 05:30N 49°39' W 001°37'5 9.7
2018-Apr-17 05:00N 49°43' W 001°42'4 8.6
2018-Apr-17 04:31N 49°47' W 001°40'713.1
2018-Apr-17 04:00N 49°49' W 001°31'612.5
2018-Apr-17 03:30N 49°51' W 001°22'612.5
2018-Apr-17 03:00N 49°53' W 001°13'612.6
2018-Apr-17 02:30N 49°54' W 001°03'612.5
2018-Apr-17 02:00N 49°54' W 000°53'612.2
2018-Apr-17 01:30N 49°54' W 000°44'5 9.8
2018-Apr-17 00:59N 49°55' W 000°36'4 8.3
2018-Apr-17 00:29N 49°59' W 000°39'4 8.8
2018-Apr-17 00:00N 50°03' W 000°43'16 8.0
2018-Apr-16 21:59N 50°18' W 000°48'4 7.9
2018-Apr-16 21:30N 50°22' W 000°49'4 8.1
2018-Apr-16 20:58N 50°26' W 000°52'4 8.7
2018-Apr-16 20:31N 50°30' W 000°54'4 8.7
2018-Apr-16 20:00N 50°34' W 000°56'4 8.6
2018-Apr-16 19:30N 50°37' W 000°60'4 8.1
2018-Apr-16 19:00N 50°41' W 000°58'611.6
2018-Apr-16 18:30N 50°45' W 001°05'4 6.9
2018-Apr-16 17:59N 50°49' W 001°06'0 0.0
2018-Apr-16 17:28N 50°49' W 001°06'0 0.0
2018-Apr-16 16:58N 50°49' W 001°06'0 0.0
2018-Apr-16 16:28N 50°49' W 001°06'0 0.0
2018-Apr-16 15:58N 50°49' W 001°06'0 0.0
2018-Apr-16 15:28N 50°49' W 001°06'0 0.0
2018-Apr-16 15:00N 50°49' W 001°06'0 0.0
2018-Apr-16 14:30N 50°49' W 001°06'0 0.0
2018-Apr-16 14:00N 50°49' W 001°06'0 0.0
2018-Apr-16 13:30N 50°49' W 001°06'0 0.0
2018-Apr-16 13:00N 50°49' W 001°06'0 0.0
2018-Apr-16 12:29N 50°49' W 001°06'0 0.0
2018-Apr-16 11:59N 50°49' W 001°06'0 0.0
2018-Apr-16 11:29N 50°49' W 001°06'0 0.0
2018-Apr-16 10:56N 50°49' W 001°06'0 0.0
2018-Apr-16 10:28N 50°49' W 001°06'0 0.0
2018-Apr-16 09:58N 50°49' W 001°06'0 0.0
2018-Apr-16 09:28N 50°49' W 001°06'0 0.0
2018-Apr-16 08:58N 50°49' W 001°06'0 0.0
2018-Apr-16 08:28N 50°49' W 001°06'0 0.0
2018-Apr-16 08:00N 50°49' W 001°06'0 0.0
2018-Apr-16 07:30N 50°49' W 001°06'0 0.0
2018-Apr-16 07:00N 50°49' W 001°06'0 0.0
2018-Apr-16 06:30N 50°49' W 001°06'0 0.0
2018-Apr-16 06:00N 50°49' W 001°06'0 0.0
2018-Apr-16 05:29N 50°49' W 001°06'0 0.0
2018-Apr-16 05:00N 50°49' W 001°06'1 1.7
2018-Apr-16 04:30N 50°48' W 001°07'5 9.4
2018-Apr-16 04:00N 50°44' W 001°04'611.8
2018-Apr-16 03:30N 50°39' W 000°59'612.6
2018-Apr-16 03:00N 50°33' W 000°59'815.3
2018-Apr-16 02:30N 50°25' W 001°00'1114.0
2018-Apr-16 01:42N 50°14' W 000°59'3 9.9
2018-Apr-16 01:25N 50°11' W 001°01'511.8
2018-Apr-16 01:00N 50°06' W 000°60'612.5
2018-Apr-16 00:30N 50°00' W 000°56'510.7
2018-Apr-16 00:00N 49°55' W 000°59'510.7
2018-Apr-15 23:30N 49°50' W 001°02'611.7
2018-Apr-15 23:01N 49°48' W 000°53'610.5
2018-Apr-15 22:29N 49°43' W 000°49'510.4
2018-Apr-15 22:00N 49°39' W 000°45'610.1
2018-Apr-15 21:24N 49°36' W 000°37'410.1
2018-Apr-15 21:00N 49°35' W 000°31'5 9.6
2018-Apr-15 20:27N 49°34' W 000°23'4 9.6
2018-Apr-15 20:00N 49°32' W 000°17'510.2
2018-Apr-15 19:30N 49°30' W 000°10'510.8
2018-Apr-15 19:00N 49°28' W 000°02'612.1
2018-Apr-15 18:30N 49°26' E 000°07'5 9.5
2018-Apr-15 17:59N 49°26' E 000°14'0 0.0
2018-Apr-15 17:29N 49°26' E 000°14'0 0.0
2018-Apr-15 16:59N 49°26' E 000°14'0 0.0
2018-Apr-15 16:29N 49°26' E 000°14'0 0.0
2018-Apr-15 15:55N 49°26' E 000°14'0 0.0
2018-Apr-15 15:28N 49°26' E 000°14'0 0.0
2018-Apr-15 14:58N 49°26' E 000°14'0 0.0
2018-Apr-15 14:28N 49°26' E 000°14'0 0.0
2018-Apr-15 13:58N 49°26' E 000°14'0 0.0
2018-Apr-15 13:30N 49°26' E 000°14'0 0.0
2018-Apr-15 13:00N 49°26' E 000°14'0 0.0
2018-Apr-15 12:27N 49°26' E 000°14'0 0.0
2018-Apr-15 12:00N 49°26' E 000°14'0 0.0
2018-Apr-15 11:30N 49°26' E 000°14'0 0.0
2018-Apr-15 10:59N 49°26' E 000°14'0 0.0
2018-Apr-15 10:29N 49°26' E 000°14'0 0.0
2018-Apr-15 09:59N 49°26' E 000°14'0 0.0
2018-Apr-15 09:29N 49°26' E 000°14'0 0.0
2018-Apr-15 08:58N 49°26' E 000°14'0 0.0
2018-Apr-15 08:28N 49°26' E 000°14'0 0.0
2018-Apr-15 07:58N 49°26' E 000°14'0 0.0
2018-Apr-15 07:25N 49°26' E 000°14'0 0.0
2018-Apr-15 06:55N 49°26' E 000°14'0 0.3
2018-Apr-15 06:30N 49°26' E 000°14'5 9.2
2018-Apr-15 06:00N 49°26' E 000°07'713.9
2018-Apr-15 05:30N 49°29' W 000°03'510.9
2018-Apr-15 05:01N 49°30' W 000°11'611.8
2018-Apr-15 04:30N 49°32' W 000°19'612.4
2018-Apr-15 04:00N 49°35' W 000°28'612.4
2018-Apr-15 03:30N 49°38' W 000°36'612.3
2018-Apr-15 03:01N 49°41' W 000°44'611.8
2018-Apr-15 02:30N 49°46' W 000°51'612.4
2018-Apr-15 02:00N 49°49' W 000°58'612.2
2018-Apr-15 01:30N 49°53' W 001°06'611.4
2018-Apr-15 01:00N 49°55' W 001°14'611.1
2018-Apr-15 00:30N 49°56' W 001°22'611.7
2018-Apr-15 00:00N 49°56' W 001°32'611.5
2018-Apr-14 23:30N 49°57' W 001°41'611.5
2018-Apr-14 23:00N 49°57' W 001°49'  

Dump ship's entire track history